sensor_id;sensor_type;location;lat;lon;timestamp;P1;durP1;ratioP1;P2;durP2;ratioP2
25015;SDS011;13029;46.286;7.488;2023-05-18T00:00:09;4.75;;;1.70;;
25015;SDS011;13029;46.286;7.488;2023-05-18T00:02:38;2.20;;;1.38;;
25015;SDS011;13029;46.286;7.488;2023-05-18T00:05:04;5.68;;;1.80;;
25015;SDS011;13029;46.286;7.488;2023-05-18T00:07:30;2.10;;;1.50;;
25015;SDS011;13029;46.286;7.488;2023-05-18T00:09:58;2.85;;;1.70;;
25015;SDS011;13029;46.286;7.488;2023-05-18T00:12:23;3.83;;;1.80;;
25015;SDS011;13029;46.286;7.488;2023-05-18T00:14:49;2.10;;;1.70;;
25015;SDS011;13029;46.286;7.488;2023-05-18T00:17:14;3.53;;;1.30;;
25015;SDS011;13029;46.286;7.488;2023-05-18T00:19:39;3.92;;;1.58;;
25015;SDS011;13029;46.286;7.488;2023-05-18T00:22:05;3.80;;;1.58;;
25015;SDS011;13029;46.286;7.488;2023-05-18T00:24:31;2.40;;;1.48;;
25015;SDS011;13029;46.286;7.488;2023-05-18T00:26:57;3.47;;;1.42;;
25015;SDS011;13029;46.286;7.488;2023-05-18T00:29:22;2.72;;;1.60;;
25015;SDS011;13029;46.286;7.488;2023-05-18T00:31:47;2.95;;;1.63;;
25015;SDS011;13029;46.286;7.488;2023-05-18T00:34:15;1.95;;;1.40;;
25015;SDS011;13029;46.286;7.488;2023-05-18T00:36:40;2.17;;;1.33;;
25015;SDS011;13029;46.286;7.488;2023-05-18T00:39:06;2.53;;;1.63;;
25015;SDS011;13029;46.286;7.488;2023-05-18T00:41:33;1.80;;;1.58;;
25015;SDS011;13029;46.286;7.488;2023-05-18T00:43:58;2.58;;;1.55;;
25015;SDS011;13029;46.286;7.488;2023-05-18T00:46:24;5.80;;;1.52;;
25015;SDS011;13029;46.286;7.488;2023-05-18T00:48:50;1.85;;;1.40;;
25015;SDS011;13029;46.286;7.488;2023-05-18T00:51:19;2.38;;;1.48;;
25015;SDS011;13029;46.286;7.488;2023-05-18T00:53:47;2.88;;;1.50;;
25015;SDS011;13029;46.286;7.488;2023-05-18T00:56:13;3.58;;;1.55;;
25015;SDS011;13029;46.286;7.488;2023-05-18T00:58:39;1.52;;;1.33;;
25015;SDS011;13029;46.286;7.488;2023-05-18T01:01:05;2.85;;;1.73;;
25015;SDS011;13029;46.286;7.488;2023-05-18T01:03:31;2.38;;;1.60;;
25015;SDS011;13029;46.286;7.488;2023-05-18T01:05:58;2.35;;;1.30;;
25015;SDS011;13029;46.286;7.488;2023-05-18T01:08:24;3.72;;;1.65;;
25015;SDS011;13029;46.286;7.488;2023-05-18T01:10:51;2.17;;;1.60;;
25015;SDS011;13029;46.286;7.488;2023-05-18T01:14:03;2.75;;;1.45;;
25015;SDS011;13029;46.286;7.488;2023-05-18T01:16:12;2.65;;;1.45;;
25015;SDS011;13029;46.286;7.488;2023-05-18T01:18:44;2.10;;;1.40;;
25015;SDS011;13029;46.286;7.488;2023-05-18T01:26:54;1.80;;;1.40;;
25015;SDS011;13029;46.286;7.488;2023-05-18T01:29:23;1.98;;;1.40;;
25015;SDS011;13029;46.286;7.488;2023-05-18T01:31:49;2.67;;;1.67;;
25015;SDS011;13029;46.286;7.488;2023-05-18T01:34:15;3.45;;;1.75;;
25015;SDS011;13029;46.286;7.488;2023-05-18T01:36:40;2.65;;;1.75;;
25015;SDS011;13029;46.286;7.488;2023-05-18T01:39:05;2.28;;;1.40;;
25015;SDS011;13029;46.286;7.488;2023-05-18T01:41:32;1.80;;;1.45;;
25015;SDS011;13029;46.286;7.488;2023-05-18T01:44:02;3.55;;;1.60;;
25015;SDS011;13029;46.286;7.488;2023-05-18T01:46:38;2.50;;;1.70;;
25015;SDS011;13029;46.286;7.488;2023-05-18T01:51:48;3.05;;;1.80;;
25015;SDS011;13029;46.286;7.488;2023-05-18T01:54:15;2.70;;;1.42;;
25015;SDS011;13029;46.286;7.488;2023-05-18T01:56:41;3.92;;;1.60;;
25015;SDS011;13029;46.286;7.488;2023-05-18T01:59:07;2.05;;;1.80;;
25015;SDS011;13029;46.286;7.488;2023-05-18T02:01:32;2.90;;;1.83;;
25015;SDS011;13029;46.286;7.488;2023-05-18T02:03:57;5.53;;;1.50;;
25015;SDS011;13029;46.286;7.488;2023-05-18T02:06:23;11.88;;;1.70;;
25015;SDS011;13029;46.286;7.488;2023-05-18T02:08:48;7.97;;;2.08;;
25015;SDS011;13029;46.286;7.488;2023-05-18T02:11:14;2.35;;;1.20;;
25015;SDS011;13029;46.286;7.488;2023-05-18T02:13:40;2.45;;;1.60;;
25015;SDS011;13029;46.286;7.488;2023-05-18T02:16:05;3.55;;;1.40;;
25015;SDS011;13029;46.286;7.488;2023-05-18T02:18:31;3.30;;;1.50;;
25015;SDS011;13029;46.286;7.488;2023-05-18T02:20:58;2.85;;;1.60;;
25015;SDS011;13029;46.286;7.488;2023-05-18T02:23:24;2.00;;;1.40;;
25015;SDS011;13029;46.286;7.488;2023-05-18T02:25:50;2.70;;;1.42;;
25015;SDS011;13029;46.286;7.488;2023-05-18T02:28:15;4.88;;;2.00;;
25015;SDS011;13029;46.286;7.488;2023-05-18T02:30:40;2.38;;;1.40;;
25015;SDS011;13029;46.286;7.488;2023-05-18T02:33:06;3.55;;;1.77;;
25015;SDS011;13029;46.286;7.488;2023-05-18T02:35:33;4.15;;;1.63;;
25015;SDS011;13029;46.286;7.488;2023-05-18T02:37:59;2.03;;;1.60;;
25015;SDS011;13029;46.286;7.488;2023-05-18T02:40:24;3.40;;;1.52;;
25015;SDS011;13029;46.286;7.488;2023-05-18T02:42:50;3.20;;;1.77;;
25015;SDS011;13029;46.286;7.488;2023-05-18T02:45:15;1.73;;;1.48;;
25015;SDS011;13029;46.286;7.488;2023-05-18T02:47:40;3.67;;;1.42;;
25015;SDS011;13029;46.286;7.488;2023-05-18T02:50:08;2.42;;;1.40;;
25015;SDS011;13029;46.286;7.488;2023-05-18T02:52:33;1.73;;;1.42;;
25015;SDS011;13029;46.286;7.488;2023-05-18T02:54:59;2.05;;;1.20;;
25015;SDS011;13029;46.286;7.488;2023-05-18T02:57:24;2.67;;;1.60;;
25015;SDS011;13029;46.286;7.488;2023-05-18T02:59:49;1.55;;;1.42;;
25015;SDS011;13029;46.286;7.488;2023-05-18T03:02:15;1.92;;;1.42;;
25015;SDS011;13029;46.286;7.488;2023-05-18T03:04:40;3.33;;;1.77;;
25015;SDS011;13029;46.286;7.488;2023-05-18T03:07:06;2.97;;;1.70;;
25015;SDS011;13029;46.286;7.488;2023-05-18T03:09:32;3.53;;;1.58;;
25015;SDS011;13029;46.286;7.488;2023-05-18T03:11:57;3.15;;;1.50;;
25015;SDS011;13029;46.286;7.488;2023-05-18T03:14:22;4.07;;;1.75;;
25015;SDS011;13029;46.286;7.488;2023-05-18T03:16:48;3.65;;;1.52;;
25015;SDS011;13029;46.286;7.488;2023-05-18T03:19:18;3.25;;;1.58;;
25015;SDS011;13029;46.286;7.488;2023-05-18T03:21:43;2.15;;;1.60;;
25015;SDS011;13029;46.286;7.488;2023-05-18T03:24:08;5.18;;;1.88;;
25015;SDS011;13029;46.286;7.488;2023-05-18T03:26:33;5.28;;;1.35;;
25015;SDS011;13029;46.286;7.488;2023-05-18T03:28:59;2.05;;;1.50;;
25015;SDS011;13029;46.286;7.488;2023-05-18T03:31:25;1.98;;;1.67;;
25015;SDS011;13029;46.286;7.488;2023-05-18T03:33:51;3.35;;;1.83;;
25015;SDS011;13029;46.286;7.488;2023-05-18T03:36:16;1.90;;;1.60;;
25015;SDS011;13029;46.286;7.488;2023-05-18T03:38:41;2.83;;;1.90;;
25015;SDS011;13029;46.286;7.488;2023-05-18T03:41:10;5.85;;;2.38;;
25015;SDS011;13029;46.286;7.488;2023-05-18T03:43:36;3.03;;;1.90;;
25015;SDS011;13029;46.286;7.488;2023-05-18T03:46:01;3.55;;;1.58;;
25015;SDS011;13029;46.286;7.488;2023-05-18T03:48:26;6.35;;;1.77;;
25015;SDS011;13029;46.286;7.488;2023-05-18T03:50:52;5.63;;;2.40;;
25015;SDS011;13029;46.286;7.488;2023-05-18T03:53:17;2.65;;;1.50;;
25015;SDS011;13029;46.286;7.488;2023-05-18T03:55:45;2.42;;;1.67;;
25015;SDS011;13029;46.286;7.488;2023-05-18T03:58:13;1.83;;;1.20;;
25015;SDS011;13029;46.286;7.488;2023-05-18T04:00:38;4.97;;;1.70;;
25015;SDS011;13029;46.286;7.488;2023-05-18T04:03:04;3.08;;;1.38;;
25015;SDS011;13029;46.286;7.488;2023-05-18T04:05:30;2.90;;;1.50;;
25015;SDS011;13029;46.286;7.488;2023-05-18T04:07:55;2.78;;;1.45;;
25015;SDS011;13029;46.286;7.488;2023-05-18T04:10:21;1.83;;;1.45;;
25015;SDS011;13029;46.286;7.488;2023-05-18T04:12:47;3.60;;;1.67;;
25015;SDS011;13029;46.286;7.488;2023-05-18T04:15:12;2.63;;;1.55;;
25015;SDS011;13029;46.286;7.488;2023-05-18T04:17:38;2.08;;;1.30;;
25015;SDS011;13029;46.286;7.488;2023-05-18T04:20:07;2.17;;;1.58;;
25015;SDS011;13029;46.286;7.488;2023-05-18T04:22:43;2.00;;;1.53;;
25015;SDS011;13029;46.286;7.488;2023-05-18T04:25:13;1.90;;;1.40;;
25015;SDS011;13029;46.286;7.488;2023-05-18T04:27:39;3.38;;;1.73;;
25015;SDS011;13029;46.286;7.488;2023-05-18T04:30:06;2.80;;;1.40;;
25015;SDS011;13029;46.286;7.488;2023-05-18T04:32:32;3.00;;;1.58;;
25015;SDS011;13029;46.286;7.488;2023-05-18T04:35:00;1.77;;;1.30;;
25015;SDS011;13029;46.286;7.488;2023-05-18T04:37:28;4.45;;;1.30;;
25015;SDS011;13029;46.286;7.488;2023-05-18T04:39:53;2.22;;;1.52;;
25015;SDS011;13029;46.286;7.488;2023-05-18T04:42:18;1.83;;;1.50;;
25015;SDS011;13029;46.286;7.488;2023-05-18T04:44:44;4.03;;;1.58;;
25015;SDS011;13029;46.286;7.488;2023-05-18T04:47:10;1.83;;;1.60;;
25015;SDS011;13029;46.286;7.488;2023-05-18T04:49:36;4.15;;;1.77;;
25015;SDS011;13029;46.286;7.488;2023-05-18T04:52:01;1.30;;;1.20;;
25015;SDS011;13029;46.286;7.488;2023-05-18T04:54:27;2.55;;;1.20;;
25015;SDS011;13029;46.286;7.488;2023-05-18T04:56:56;3.90;;;1.63;;
25015;SDS011;13029;46.286;7.488;2023-05-18T04:59:22;3.58;;;1.40;;
25015;SDS011;13029;46.286;7.488;2023-05-18T05:01:50;2.50;;;1.63;;
25015;SDS011;13029;46.286;7.488;2023-05-18T05:04:15;4.30;;;1.73;;
25015;SDS011;13029;46.286;7.488;2023-05-18T05:06:40;2.00;;;1.50;;
25015;SDS011;13029;46.286;7.488;2023-05-18T05:09:06;2.42;;;1.30;;
25015;SDS011;13029;46.286;7.488;2023-05-18T05:11:32;2.85;;;1.52;;
25015;SDS011;13029;46.286;7.488;2023-05-18T05:13:57;2.72;;;1.23;;
25015;SDS011;13029;46.286;7.488;2023-05-18T05:16:22;3.35;;;2.08;;
25015;SDS011;13029;46.286;7.488;2023-05-18T05:18:47;3.30;;;2.10;;
25015;SDS011;13029;46.286;7.488;2023-05-18T05:21:13;3.95;;;1.67;;
25015;SDS011;13029;46.286;7.488;2023-05-18T05:23:38;4.75;;;1.83;;
25015;SDS011;13029;46.286;7.488;2023-05-18T05:26:05;2.15;;;1.52;;
25015;SDS011;13029;46.286;7.488;2023-05-18T05:28:30;2.05;;;1.85;;
25015;SDS011;13029;46.286;7.488;2023-05-18T05:30:55;1.42;;;1.33;;
25015;SDS011;13029;46.286;7.488;2023-05-18T05:33:21;3.15;;;2.13;;
25015;SDS011;13029;46.286;7.488;2023-05-18T05:35:46;3.13;;;1.67;;
25015;SDS011;13029;46.286;7.488;2023-05-18T05:38:11;3.00;;;1.70;;
25015;SDS011;13029;46.286;7.488;2023-05-18T05:40:37;2.70;;;1.73;;
25015;SDS011;13029;46.286;7.488;2023-05-18T05:43:03;2.47;;;1.50;;
25015;SDS011;13029;46.286;7.488;2023-05-18T05:45:29;5.20;;;1.85;;
25015;SDS011;13029;46.286;7.488;2023-05-18T05:47:55;4.90;;;1.67;;
25015;SDS011;13029;46.286;7.488;2023-05-18T05:50:20;4.75;;;1.92;;
25015;SDS011;13029;46.286;7.488;2023-05-18T05:52:45;2.08;;;1.88;;
25015;SDS011;13029;46.286;7.488;2023-05-18T05:55:11;3.00;;;2.00;;
25015;SDS011;13029;46.286;7.488;2023-05-18T05:57:36;3.83;;;1.90;;
25015;SDS011;13029;46.286;7.488;2023-05-18T06:00:03;5.80;;;2.10;;
25015;SDS011;13029;46.286;7.488;2023-05-18T06:02:29;3.17;;;1.65;;
25015;SDS011;13029;46.286;7.488;2023-05-18T06:04:55;5.20;;;1.70;;
25015;SDS011;13029;46.286;7.488;2023-05-18T06:07:20;2.38;;;1.77;;
25015;SDS011;13029;46.286;7.488;2023-05-18T06:09:45;4.45;;;2.00;;
25015;SDS011;13029;46.286;7.488;2023-05-18T06:12:11;3.58;;;1.80;;
25015;SDS011;13029;46.286;7.488;2023-05-18T06:14:36;2.33;;;1.48;;
25015;SDS011;13029;46.286;7.488;2023-05-18T06:17:01;3.92;;;1.88;;
25015;SDS011;13029;46.286;7.488;2023-05-18T06:19:27;2.28;;;1.42;;
25015;SDS011;13029;46.286;7.488;2023-05-18T06:21:52;5.70;;;1.40;;
25015;SDS011;13029;46.286;7.488;2023-05-18T06:24:17;2.53;;;1.50;;
25015;SDS011;13029;46.286;7.488;2023-05-18T06:26:43;2.40;;;1.55;;
25015;SDS011;13029;46.286;7.488;2023-05-18T06:29:09;4.57;;;2.10;;
25015;SDS011;13029;46.286;7.488;2023-05-18T06:31:34;2.50;;;1.77;;
25015;SDS011;13029;46.286;7.488;2023-05-18T06:33:59;4.40;;;1.70;;
25015;SDS011;13029;46.286;7.488;2023-05-18T06:36:25;3.92;;;1.42;;
25015;SDS011;13029;46.286;7.488;2023-05-18T06:38:50;3.15;;;1.80;;
25015;SDS011;13029;46.286;7.488;2023-05-18T06:41:16;3.03;;;2.05;;
25015;SDS011;13029;46.286;7.488;2023-05-18T06:43:41;3.75;;;1.75;;
25015;SDS011;13029;46.286;7.488;2023-05-18T06:46:06;3.80;;;1.80;;
25015;SDS011;13029;46.286;7.488;2023-05-18T06:48:32;4.20;;;1.40;;
25015;SDS011;13029;46.286;7.488;2023-05-18T06:50:57;4.07;;;2.15;;
25015;SDS011;13029;46.286;7.488;2023-05-18T06:53:22;5.75;;;2.67;;
25015;SDS011;13029;46.286;7.488;2023-05-18T06:55:48;3.90;;;2.20;;
25015;SDS011;13029;46.286;7.488;2023-05-18T06:58:13;3.72;;;2.05;;
25015;SDS011;13029;46.286;7.488;2023-05-18T07:00:38;2.75;;;1.65;;
25015;SDS011;13029;46.286;7.488;2023-05-18T07:03:04;3.55;;;1.58;;
25015;SDS011;13029;46.286;7.488;2023-05-18T07:05:29;5.15;;;2.10;;
25015;SDS011;13029;46.286;7.488;2023-05-18T07:07:54;6.20;;;2.53;;
25015;SDS011;13029;46.286;7.488;2023-05-18T07:10:20;3.75;;;2.00;;
25015;SDS011;13029;46.286;7.488;2023-05-18T07:12:46;2.75;;;1.83;;
25015;SDS011;13029;46.286;7.488;2023-05-18T07:15:12;3.00;;;1.92;;
25015;SDS011;13029;46.286;7.488;2023-05-18T07:17:37;3.33;;;1.98;;
25015;SDS011;13029;46.286;7.488;2023-05-18T07:20:03;7.97;;;2.28;;
25015;SDS011;13029;46.286;7.488;2023-05-18T07:22:30;5.43;;;2.25;;
25015;SDS011;13029;46.286;7.488;2023-05-18T07:24:56;4.28;;;1.98;;
25015;SDS011;13029;46.286;7.488;2023-05-18T07:27:22;4.97;;;2.28;;
25015;SDS011;13029;46.286;7.488;2023-05-18T07:29:48;3.97;;;2.40;;
25015;SDS011;13029;46.286;7.488;2023-05-18T07:32:13;3.63;;;2.20;;
25015;SDS011;13029;46.286;7.488;2023-05-18T07:34:39;3.78;;;2.28;;
25015;SDS011;13029;46.286;7.488;2023-05-18T07:37:06;6.80;;;2.75;;
25015;SDS011;13029;46.286;7.488;2023-05-18T07:39:31;4.95;;;2.25;;
25015;SDS011;13029;46.286;7.488;2023-05-18T07:41:57;2.88;;;2.15;;
25015;SDS011;13029;46.286;7.488;2023-05-18T07:44:23;4.22;;;2.10;;
25015;SDS011;13029;46.286;7.488;2023-05-18T07:46:48;4.60;;;2.25;;
25015;SDS011;13029;46.286;7.488;2023-05-18T07:49:14;6.28;;;2.13;;
25015;SDS011;13029;46.286;7.488;2023-05-18T07:51:40;3.63;;;2.20;;
25015;SDS011;13029;46.286;7.488;2023-05-18T07:54:06;6.53;;;2.20;;
25015;SDS011;13029;46.286;7.488;2023-05-18T07:56:31;1.88;;;1.77;;
25015;SDS011;13029;46.286;7.488;2023-05-18T07:58:56;3.72;;;2.20;;
25015;SDS011;13029;46.286;7.488;2023-05-18T08:01:22;4.53;;;2.50;;
25015;SDS011;13029;46.286;7.488;2023-05-18T08:03:51;5.30;;;2.28;;
25015;SDS011;13029;46.286;7.488;2023-05-18T08:06:17;3.53;;;1.90;;
25015;SDS011;13029;46.286;7.488;2023-05-18T08:08:43;3.28;;;2.00;;
25015;SDS011;13029;46.286;7.488;2023-05-18T08:11:08;5.47;;;2.47;;
25015;SDS011;13029;46.286;7.488;2023-05-18T08:13:33;4.85;;;2.15;;
25015;SDS011;13029;46.286;7.488;2023-05-18T08:15:58;8.10;;;2.30;;
25015;SDS011;13029;46.286;7.488;2023-05-18T08:18:24;3.08;;;2.13;;
25015;SDS011;13029;46.286;7.488;2023-05-18T08:20:50;3.42;;;2.30;;
25015;SDS011;13029;46.286;7.488;2023-05-18T08:23:17;3.28;;;2.42;;
25015;SDS011;13029;46.286;7.488;2023-05-18T08:25:43;5.35;;;2.17;;
25015;SDS011;13029;46.286;7.488;2023-05-18T08:28:08;4.10;;;2.28;;
25015;SDS011;13029;46.286;7.488;2023-05-18T08:30:34;3.45;;;2.40;;
25015;SDS011;13029;46.286;7.488;2023-05-18T08:32:59;3.40;;;1.98;;
25015;SDS011;13029;46.286;7.488;2023-05-18T08:35:25;5.65;;;2.50;;
25015;SDS011;13029;46.286;7.488;2023-05-18T08:37:50;3.60;;;2.20;;
25015;SDS011;13029;46.286;7.488;2023-05-18T08:40:16;3.83;;;1.83;;
25015;SDS011;13029;46.286;7.488;2023-05-18T08:42:46;3.95;;;1.90;;
25015;SDS011;13029;46.286;7.488;2023-05-18T08:47:46;3.55;;;1.90;;
25015;SDS011;13029;46.286;7.488;2023-05-18T08:50:14;4.78;;;2.70;;
25015;SDS011;13029;46.286;7.488;2023-05-18T08:52:46;2.92;;;1.80;;
25015;SDS011;13029;46.286;7.488;2023-05-18T08:55:12;5.50;;;2.20;;
25015;SDS011;13029;46.286;7.488;2023-05-18T08:57:39;4.45;;;2.00;;
25015;SDS011;13029;46.286;7.488;2023-05-18T09:00:07;3.17;;;2.20;;
25015;SDS011;13029;46.286;7.488;2023-05-18T09:02:34;3.67;;;1.73;;
25015;SDS011;13029;46.286;7.488;2023-05-18T09:05:00;2.33;;;2.08;;
25015;SDS011;13029;46.286;7.488;2023-05-18T09:07:27;3.83;;;2.00;;
25015;SDS011;13029;46.286;7.488;2023-05-18T09:09:53;3.40;;;2.10;;
25015;SDS011;13029;46.286;7.488;2023-05-18T09:12:19;4.07;;;2.00;;
25015;SDS011;13029;46.286;7.488;2023-05-18T09:14:46;3.58;;;2.13;;
25015;SDS011;13029;46.286;7.488;2023-05-18T09:17:12;4.18;;;1.85;;
25015;SDS011;13029;46.286;7.488;2023-05-18T09:19:37;4.43;;;2.42;;
25015;SDS011;13029;46.286;7.488;2023-05-18T09:22:03;2.88;;;1.90;;
25015;SDS011;13029;46.286;7.488;2023-05-18T09:24:29;4.95;;;2.00;;
25015;SDS011;13029;46.286;7.488;2023-05-18T09:26:54;3.78;;;2.10;;
25015;SDS011;13029;46.286;7.488;2023-05-18T09:29:20;3.95;;;2.22;;
25015;SDS011;13029;46.286;7.488;2023-05-18T09:31:46;2.00;;;1.67;;
25015;SDS011;13029;46.286;7.488;2023-05-18T09:34:12;3.53;;;1.83;;
25015;SDS011;13029;46.286;7.488;2023-05-18T09:36:38;4.50;;;1.98;;
25015;SDS011;13029;46.286;7.488;2023-05-18T09:39:10;3.35;;;2.10;;
25015;SDS011;13029;46.286;7.488;2023-05-18T09:41:37;4.22;;;2.00;;
25015;SDS011;13029;46.286;7.488;2023-05-18T09:44:08;2.33;;;1.77;;
25015;SDS011;13029;46.286;7.488;2023-05-18T09:49:02;5.50;;;1.95;;
25015;SDS011;13029;46.286;7.488;2023-05-18T09:51:28;1.92;;;1.55;;
25015;SDS011;13029;46.286;7.488;2023-05-18T09:53:54;2.60;;;1.90;;
25015;SDS011;13029;46.286;7.488;2023-05-18T09:56:21;4.43;;;1.85;;
25015;SDS011;13029;46.286;7.488;2023-05-18T09:58:47;3.85;;;1.92;;
25015;SDS011;13029;46.286;7.488;2023-05-18T10:01:12;2.45;;;1.80;;
25015;SDS011;13029;46.286;7.488;2023-05-18T10:03:37;2.75;;;1.65;;
25015;SDS011;13029;46.286;7.488;2023-05-18T10:06:03;2.67;;;1.90;;
25015;SDS011;13029;46.286;7.488;2023-05-18T10:08:30;6.47;;;2.85;;
25015;SDS011;13029;46.286;7.488;2023-05-18T10:10:56;5.85;;;2.30;;
25015;SDS011;13029;46.286;7.488;2023-05-18T10:13:23;5.43;;;2.05;;
25015;SDS011;13029;46.286;7.488;2023-05-18T10:15:54;7.93;;;2.53;;
25015;SDS011;13029;46.286;7.488;2023-05-18T10:18:21;3.35;;;2.28;;
25015;SDS011;13029;46.286;7.488;2023-05-18T10:20:48;2.47;;;1.90;;
25015;SDS011;13029;46.286;7.488;2023-05-18T10:23:14;3.83;;;2.20;;
25015;SDS011;13029;46.286;7.488;2023-05-18T10:25:40;4.95;;;2.42;;
25015;SDS011;13029;46.286;7.488;2023-05-18T10:28:07;5.82;;;2.08;;
25015;SDS011;13029;46.286;7.488;2023-05-18T10:30:34;8.50;;;2.53;;
25015;SDS011;13029;46.286;7.488;2023-05-18T10:33:00;3.17;;;2.03;;
25015;SDS011;13029;46.286;7.488;2023-05-18T10:35:27;3.30;;;1.85;;
25015;SDS011;13029;46.286;7.488;2023-05-18T10:37:52;4.32;;;2.15;;
25015;SDS011;13029;46.286;7.488;2023-05-18T10:40:19;4.75;;;2.25;;
25015;SDS011;13029;46.286;7.488;2023-05-18T10:42:45;4.18;;;2.10;;
25015;SDS011;13029;46.286;7.488;2023-05-18T10:45:11;4.00;;;2.05;;
25015;SDS011;13029;46.286;7.488;2023-05-18T10:47:36;5.82;;;2.25;;
25015;SDS011;13029;46.286;7.488;2023-05-18T10:50:03;3.97;;;2.35;;
25015;SDS011;13029;46.286;7.488;2023-05-18T10:52:30;3.47;;;1.95;;
25015;SDS011;13029;46.286;7.488;2023-05-18T10:54:59;6.13;;;2.30;;
25015;SDS011;13029;46.286;7.488;2023-05-18T10:57:25;7.07;;;2.75;;
25015;SDS011;13029;46.286;7.488;2023-05-18T10:59:56;4.85;;;2.85;;
25015;SDS011;13029;46.286;7.488;2023-05-18T11:02:21;5.63;;;2.25;;
25015;SDS011;13029;46.286;7.488;2023-05-18T11:04:48;4.50;;;2.30;;
25015;SDS011;13029;46.286;7.488;2023-05-18T11:07:13;5.55;;;2.20;;
25015;SDS011;13029;46.286;7.488;2023-05-18T11:09:42;3.25;;;2.03;;
25015;SDS011;13029;46.286;7.488;2023-05-18T11:12:11;2.37;;;2.00;;
25015;SDS011;13029;46.286;7.488;2023-05-18T11:14:46;4.95;;;2.20;;
25015;SDS011;13029;46.286;7.488;2023-05-18T11:17:45;4.80;;;2.05;;
25015;SDS011;13029;46.286;7.488;2023-05-18T11:27:48;4.25;;;2.00;;
25015;SDS011;13029;46.286;7.488;2023-05-18T11:30:27;5.05;;;1.58;;
25015;SDS011;13029;46.286;7.488;2023-05-18T11:33:06;4.53;;;2.38;;
25015;SDS011;13029;46.286;7.488;2023-05-18T11:38:47;3.20;;;1.75;;
25015;SDS011;13029;46.286;7.488;2023-05-18T11:41:32;4.63;;;1.85;;
25015;SDS011;13029;46.286;7.488;2023-05-18T11:46:54;5.75;;;2.55;;
25015;SDS011;13029;46.286;7.488;2023-05-18T11:49:34;3.00;;;1.92;;
25015;SDS011;13029;46.286;7.488;2023-05-18T11:54:45;4.22;;;2.00;;
25015;SDS011;13029;46.286;7.488;2023-05-18T11:57:14;6.03;;;2.67;;
25015;SDS011;13029;46.286;7.488;2023-05-18T11:59:42;5.50;;;2.17;;
25015;SDS011;13029;46.286;7.488;2023-05-18T12:02:09;5.10;;;2.10;;
25015;SDS011;13029;46.286;7.488;2023-05-18T12:04:43;5.47;;;2.00;;
25015;SDS011;13029;46.286;7.488;2023-05-18T12:07:10;4.95;;;2.10;;
25015;SDS011;13029;46.286;7.488;2023-05-18T12:09:38;3.47;;;1.92;;
25015;SDS011;13029;46.286;7.488;2023-05-18T12:12:05;3.13;;;1.95;;
25015;SDS011;13029;46.286;7.488;2023-05-18T12:14:31;4.63;;;1.98;;
25015;SDS011;13029;46.286;7.488;2023-05-18T12:16:58;6.30;;;2.03;;
25015;SDS011;13029;46.286;7.488;2023-05-18T12:19:25;4.50;;;2.00;;
25015;SDS011;13029;46.286;7.488;2023-05-18T12:21:51;6.18;;;1.85;;
25015;SDS011;13029;46.286;7.488;2023-05-18T12:24:17;3.75;;;1.88;;
25015;SDS011;13029;46.286;7.488;2023-05-18T12:26:42;3.80;;;1.55;;
25015;SDS011;13029;46.286;7.488;2023-05-18T12:29:10;2.92;;;1.98;;
25015;SDS011;13029;46.286;7.488;2023-05-18T12:31:38;3.25;;;2.17;;
25015;SDS011;13029;46.286;7.488;2023-05-18T12:34:05;5.38;;;2.10;;
25015;SDS011;13029;46.286;7.488;2023-05-18T12:36:30;5.00;;;2.00;;
25015;SDS011;13029;46.286;7.488;2023-05-18T12:38:59;5.88;;;2.45;;
25015;SDS011;13029;46.286;7.488;2023-05-18T12:41:25;3.25;;;2.20;;
25015;SDS011;13029;46.286;7.488;2023-05-18T12:43:51;5.57;;;2.35;;
25015;SDS011;13029;46.286;7.488;2023-05-18T12:46:19;4.28;;;2.25;;
25015;SDS011;13029;46.286;7.488;2023-05-18T12:48:46;4.10;;;2.20;;
25015;SDS011;13029;46.286;7.488;2023-05-18T12:51:18;4.82;;;2.28;;
25015;SDS011;13029;46.286;7.488;2023-05-18T12:53:44;4.10;;;2.08;;
25015;SDS011;13029;46.286;7.488;2023-05-18T12:56:09;3.92;;;2.13;;
25015;SDS011;13029;46.286;7.488;2023-05-18T12:58:36;8.52;;;2.33;;
25015;SDS011;13029;46.286;7.488;2023-05-18T13:01:06;4.28;;;2.22;;
25015;SDS011;13029;46.286;7.488;2023-05-18T13:03:33;7.40;;;2.40;;
25015;SDS011;13029;46.286;7.488;2023-05-18T13:06:02;5.72;;;2.45;;
25015;SDS011;13029;46.286;7.488;2023-05-18T13:08:29;4.70;;;2.35;;
25015;SDS011;13029;46.286;7.488;2023-05-18T13:10:59;7.38;;;2.78;;
25015;SDS011;13029;46.286;7.488;2023-05-18T13:13:25;3.70;;;2.30;;
25015;SDS011;13029;46.286;7.488;2023-05-18T13:15:50;7.45;;;2.90;;
25015;SDS011;13029;46.286;7.488;2023-05-18T13:18:16;5.38;;;2.88;;
25015;SDS011;13029;46.286;7.488;2023-05-18T13:20:42;7.75;;;2.78;;
25015;SDS011;13029;46.286;7.488;2023-05-18T13:23:15;6.65;;;2.97;;
25015;SDS011;13029;46.286;7.488;2023-05-18T13:25:42;7.20;;;2.85;;
25015;SDS011;13029;46.286;7.488;2023-05-18T13:28:08;5.20;;;2.67;;
25015;SDS011;13029;46.286;7.488;2023-05-18T13:30:35;5.72;;;2.72;;
25015;SDS011;13029;46.286;7.488;2023-05-18T13:33:01;9.60;;;3.00;;
25015;SDS011;13029;46.286;7.488;2023-05-18T13:35:26;4.43;;;2.60;;
25015;SDS011;13029;46.286;7.488;2023-05-18T13:37:52;4.18;;;2.42;;
25015;SDS011;13029;46.286;7.488;2023-05-18T13:40:17;6.32;;;2.58;;
25015;SDS011;13029;46.286;7.488;2023-05-18T13:42:45;5.82;;;2.60;;
25015;SDS011;13029;46.286;7.488;2023-05-18T13:45:10;4.03;;;2.60;;
25015;SDS011;13029;46.286;7.488;2023-05-18T13:47:37;4.55;;;2.72;;
25015;SDS011;13029;46.286;7.488;2023-05-18T13:50:04;4.35;;;2.50;;
25015;SDS011;13029;46.286;7.488;2023-05-18T13:52:30;5.97;;;2.70;;
25015;SDS011;13029;46.286;7.488;2023-05-18T13:54:55;3.95;;;2.47;;
25015;SDS011;13029;46.286;7.488;2023-05-18T13:57:20;7.55;;;2.92;;
25015;SDS011;13029;46.286;7.488;2023-05-18T13:59:47;4.82;;;2.55;;
25015;SDS011;13029;46.286;7.488;2023-05-18T14:02:13;3.92;;;2.63;;
25015;SDS011;13029;46.286;7.488;2023-05-18T14:04:38;10.07;;;3.47;;
25015;SDS011;13029;46.286;7.488;2023-05-18T14:07:03;6.30;;;2.70;;
25015;SDS011;13029;46.286;7.488;2023-05-18T14:09:29;5.30;;;2.40;;
25015;SDS011;13029;46.286;7.488;2023-05-18T14:11:54;3.45;;;2.47;;
25015;SDS011;13029;46.286;7.488;2023-05-18T14:14:20;4.95;;;2.97;;
25015;SDS011;13029;46.286;7.488;2023-05-18T14:16:45;7.88;;;3.13;;
25015;SDS011;13029;46.286;7.488;2023-05-18T14:19:10;6.68;;;2.33;;
25015;SDS011;13029;46.286;7.488;2023-05-18T14:21:36;4.00;;;2.50;;
25015;SDS011;13029;46.286;7.488;2023-05-18T14:24:01;8.88;;;3.25;;
25015;SDS011;13029;46.286;7.488;2023-05-18T14:26:29;10.40;;;2.88;;
25015;SDS011;13029;46.286;7.488;2023-05-18T14:28:55;3.95;;;2.63;;
25015;SDS011;13029;46.286;7.488;2023-05-18T14:31:20;6.53;;;2.92;;
25015;SDS011;13029;46.286;7.488;2023-05-18T14:33:45;4.93;;;2.40;;
25015;SDS011;13029;46.286;7.488;2023-05-18T14:36:10;3.67;;;2.53;;
25015;SDS011;13029;46.286;7.488;2023-05-18T14:38:36;5.00;;;2.63;;
25015;SDS011;13029;46.286;7.488;2023-05-18T14:41:01;4.38;;;2.63;;
25015;SDS011;13029;46.286;7.488;2023-05-18T14:43:26;8.27;;;3.00;;
25015;SDS011;13029;46.286;7.488;2023-05-18T14:45:52;8.10;;;2.97;;
25015;SDS011;13029;46.286;7.488;2023-05-18T14:48:17;6.07;;;2.60;;
25015;SDS011;13029;46.286;7.488;2023-05-18T14:50:42;5.80;;;2.70;;
25015;SDS011;13029;46.286;7.488;2023-05-18T14:53:08;8.73;;;2.28;;
25015;SDS011;13029;46.286;7.488;2023-05-18T14:55:33;5.00;;;3.03;;
25015;SDS011;13029;46.286;7.488;2023-05-18T14:57:58;6.70;;;2.70;;
25015;SDS011;13029;46.286;7.488;2023-05-18T15:00:26;3.72;;;2.70;;
25015;SDS011;13029;46.286;7.488;2023-05-18T15:02:51;5.88;;;2.83;;
25015;SDS011;13029;46.286;7.488;2023-05-18T15:05:16;4.57;;;2.60;;
25015;SDS011;13029;46.286;7.488;2023-05-18T15:07:42;3.97;;;3.05;;
25015;SDS011;13029;46.286;7.488;2023-05-18T15:10:07;4.75;;;2.95;;
25015;SDS011;13029;46.286;7.488;2023-05-18T15:12:33;5.57;;;2.70;;